createdAt,value
2022-08-27T00:10:05.735Z,18.01
2022-08-27T00:20:15.248Z,18.09
2022-08-27T00:30:24.470Z,18.17
2022-08-27T00:40:33.746Z,18.15
2022-08-27T00:50:45.636Z,18.20
2022-08-27T01:00:53.730Z,18.15
2022-08-27T01:11:02.469Z,18.01
2022-08-27T01:21:14.543Z,17.70
2022-08-27T01:31:22.500Z,17.37
2022-08-27T01:41:30.442Z,17.29
2022-08-27T01:51:37.263Z,17.00
2022-08-27T02:01:45.269Z,16.94
2022-08-27T02:11:52.572Z,16.70
2022-08-27T02:21:59.335Z,16.78
2022-08-27T02:32:06.360Z,16.76
2022-08-27T02:42:12.774Z,16.75
2022-08-27T02:52:22.793Z,16.55
2022-08-27T03:02:32.806Z,16.36
2022-08-27T03:12:40.344Z,16.24
2022-08-27T03:22:47.905Z,16.11
2022-08-27T03:32:55.028Z,16.11
2022-08-27T03:43:02.184Z,16.27
2022-08-27T03:53:10.697Z,16.34
2022-08-27T04:03:18.476Z,16.24
2022-08-27T04:13:27.117Z,15.99
2022-08-27T04:23:34.579Z,16.09
2022-08-27T04:33:40.693Z,16.22
2022-08-27T04:43:47.924Z,16.17
2022-08-27T04:53:55.670Z,16.48
2022-08-27T05:04:03.054Z,17.24
2022-08-27T05:14:12.694Z,18.12
2022-08-27T05:24:20.679Z,19.23
2022-08-27T05:34:26.704Z,20.37
2022-08-27T05:44:41.045Z,21.63
2022-08-27T05:54:49.655Z,22.69
2022-08-27T06:04:55.363Z,23.90
2022-08-27T06:15:02.643Z,25.01
2022-08-27T06:25:09.933Z,25.95
2022-08-27T06:35:15.985Z,26.77
2022-08-27T06:45:23.777Z,27.44
2022-08-27T06:55:34.228Z,27.95
2022-08-27T07:05:44.659Z,27.94
2022-08-27T07:15:52.191Z,27.97
2022-08-27T07:36:05.182Z,28.58
2022-08-27T07:46:12.763Z,28.40
2022-08-27T07:56:20.221Z,28.12
2022-08-27T08:06:28.391Z,28.60
2022-08-27T08:16:35.616Z,29.19
2022-08-27T08:26:44.593Z,29.61
2022-08-27T08:36:55.109Z,29.94
2022-08-27T08:47:01.282Z,30.20
2022-08-27T08:57:18.690Z,30.52
2022-08-27T09:07:33.429Z,30.41
2022-08-27T09:17:42.175Z,30.44
2022-08-27T09:27:50.648Z,30.63
2022-08-27T09:37:59.631Z,30.82
2022-08-27T09:48:06.857Z,31.08
2022-08-27T09:58:19.092Z,30.86
2022-08-27T10:08:24.928Z,30.57
2022-08-27T10:28:40.045Z,31.13
2022-08-27T10:38:51.950Z,31.29
2022-08-27T10:49:03.385Z,31.54
2022-08-27T10:59:09.224Z,31.65
2022-08-27T11:09:18.671Z,31.31
2022-08-27T11:29:35.330Z,31.23
2022-08-27T11:50:01.337Z,31.11
2022-08-27T12:00:30.673Z,30.94
2022-08-27T12:10:36.680Z,30.68
2022-08-27T12:20:43.760Z,30.84
2022-08-27T12:30:52.122Z,30.65
2022-08-27T12:40:59.881Z,30.33
2022-08-27T12:51:18.004Z,30.32
2022-08-27T13:01:35.097Z,30.06
2022-08-27T13:11:48.230Z,29.89
2022-08-27T13:21:56.411Z,29.86
2022-08-27T13:32:04.359Z,29.72
2022-08-27T13:42:12.190Z,29.78
2022-08-27T13:52:21.312Z,29.77
2022-08-27T14:02:33.552Z,29.86
2022-08-27T14:12:43.468Z,29.69
2022-08-27T14:22:51.331Z,29.51
2022-08-27T14:32:58.600Z,29.45
2022-08-27T14:43:03.861Z,29.54
2022-08-27T14:53:11.126Z,29.44
2022-08-27T15:03:20.007Z,29.47
2022-08-27T15:13:27.559Z,29.55
2022-08-27T15:23:34.922Z,29.42
2022-08-27T15:33:42.481Z,29.39
2022-08-27T15:43:49.712Z,29.47
2022-08-27T15:53:56.903Z,29.36
2022-08-27T16:04:06.268Z,29.10
2022-08-27T16:14:14.365Z,28.79
2022-08-27T16:24:21.653Z,28.43
2022-08-27T16:34:26.282Z,27.99
2022-08-27T16:44:35.437Z,27.44
2022-08-27T16:54:42.951Z,26.99
2022-08-27T17:04:51.129Z,26.65
2022-08-27T17:15:10.197Z,26.30
2022-08-27T17:25:17.475Z,25.92
2022-08-27T17:35:22.091Z,25.61
2022-08-27T17:45:29.669Z,25.24
2022-08-27T17:55:37.843Z,24.84
2022-08-27T18:05:45.919Z,24.54
2022-08-27T18:15:52.466Z,24.27
2022-08-27T18:26:00.247Z,24.05
2022-08-27T18:36:09.067Z,23.82
2022-08-27T18:46:17.473Z,23.60
2022-08-27T18:56:23.752Z,23.37
2022-08-27T19:06:31.155Z,23.13
2022-08-27T19:16:44.462Z,22.93
2022-08-27T19:26:53.357Z,22.79
2022-08-27T19:37:02.731Z,22.76
2022-08-27T19:47:11.867Z,22.76
2022-08-27T19:57:19.071Z,22.62
2022-08-27T20:07:25.230Z,22.56
2022-08-27T20:17:32.382Z,22.45
2022-08-27T20:27:40.824Z,22.34
2022-08-27T20:37:47.883Z,22.28
2022-08-27T20:58:21.031Z,22.16
2022-08-27T21:08:28.201Z,22.02
2022-08-27T21:18:35.782Z,21.91
2022-08-27T21:28:44.691Z,21.80
2022-08-27T21:38:51.987Z,21.71
2022-08-27T21:48:59.343Z,21.58
2022-08-27T21:59:05.930Z,21.49
2022-08-27T22:09:13.469Z,21.36
2022-08-27T22:19:22.632Z,21.29
2022-08-27T22:29:30.722Z,21.17
2022-08-27T22:39:38.814Z,20.95
2022-08-27T22:49:46.479Z,20.83
2022-08-27T22:59:53.592Z,20.82
2022-08-27T23:10:01.261Z,20.76
2022-08-27T23:20:10.607Z,20.66
2022-08-27T23:30:18.575Z,20.46
2022-08-27T23:40:24.856Z,20.31
2022-08-27T23:50:33.861Z,20.07
